sensor_id;sensor_type;location;lat;lon;timestamp;pressure;altitude;pressure_sealevel;temperature;humidity
64644;BME280;51056;50.330;7.914;2023-01-09T00:01:37;98712.72;;;8.71;94.64
64644;BME280;51056;50.330;7.914;2023-01-09T00:04:40;98714.53;;;8.82;94.08
64644;BME280;51056;50.330;7.914;2023-01-09T00:07:44;98713.25;;;8.88;94.15
64644;BME280;51056;50.330;7.914;2023-01-09T00:10:47;98713.66;;;8.70;94.95
64644;BME280;51056;50.330;7.914;2023-01-09T00:13:51;98710.97;;;8.83;94.11
64644;BME280;51056;50.330;7.914;2023-01-09T00:16:55;98720.94;;;8.89;93.92
64644;BME280;51056;50.330;7.914;2023-01-09T00:19:58;98710.31;;;8.92;93.95
64644;BME280;51056;50.330;7.914;2023-01-09T00:23:01;98712.44;;;8.87;94.09
64644;BME280;51056;50.330;7.914;2023-01-09T00:26:06;98708.38;;;8.83;94.30
64644;BME280;51056;50.330;7.914;2023-01-09T00:29:10;98700.16;;;8.41;92.17
64644;BME280;51056;50.330;7.914;2023-01-09T00:32:14;98699.66;;;8.60;92.29
64644;BME280;51056;50.330;7.914;2023-01-09T00:35:17;98706.72;;;8.82;92.83
64644;BME280;51056;50.330;7.914;2023-01-09T00:38:21;98716.09;;;8.84;93.45
64644;BME280;51056;50.330;7.914;2023-01-09T00:41:29;98734.06;;;8.15;90.40
64644;BME280;51056;50.330;7.914;2023-01-09T00:44:42;98748.28;;;7.99;88.80
64644;BME280;51056;50.330;7.914;2023-01-09T00:47:49;98745.94;;;7.57;85.85
64644;BME280;51056;50.330;7.914;2023-01-09T00:50:56;98734.59;;;7.58;85.61
64644;BME280;51056;50.330;7.914;2023-01-09T00:54:01;98742.59;;;7.42;85.92
64644;BME280;51056;50.330;7.914;2023-01-09T00:57:06;98730.75;;;7.38;86.96
64644;BME280;51056;50.330;7.914;2023-01-09T01:00:10;98739.78;;;7.45;86.97
64644;BME280;51056;50.330;7.914;2023-01-09T01:03:14;98745.09;;;7.44;87.51
64644;BME280;51056;50.330;7.914;2023-01-09T01:06:17;98736.97;;;7.36;86.93
64644;BME280;51056;50.330;7.914;2023-01-09T01:09:39;98736.16;;;7.48;86.51
64644;BME280;51056;50.330;7.914;2023-01-09T01:12:42;98729.91;;;7.63;87.29
64644;BME280;51056;50.330;7.914;2023-01-09T01:15:46;98719.72;;;7.60;87.16
64644;BME280;51056;50.330;7.914;2023-01-09T01:18:49;98731.47;;;7.79;86.60
64644;BME280;51056;50.330;7.914;2023-01-09T01:21:52;98721.13;;;7.90;86.68
64644;BME280;51056;50.330;7.914;2023-01-09T01:24:55;98722.50;;;7.70;86.61
64644;BME280;51056;50.330;7.914;2023-01-09T01:27:59;98715.00;;;7.78;88.31
64644;BME280;51056;50.330;7.914;2023-01-09T01:31:02;98710.72;;;7.90;89.36
64644;BME280;51056;50.330;7.914;2023-01-09T01:34:05;98721.13;;;7.90;89.76
64644;BME280;51056;50.330;7.914;2023-01-09T01:37:09;98717.34;;;7.94;89.89
64644;BME280;51056;50.330;7.914;2023-01-09T01:40:12;98711.13;;;7.84;90.11
64644;BME280;51056;50.330;7.914;2023-01-09T01:43:15;98718.22;;;7.82;89.89
64644;BME280;51056;50.330;7.914;2023-01-09T01:46:18;98716.66;;;7.92;89.65
64644;BME280;51056;50.330;7.914;2023-01-09T01:49:22;98721.63;;;7.95;89.22
64644;BME280;51056;50.330;7.914;2023-01-09T01:52:25;98735.50;;;7.83;89.77
64644;BME280;51056;50.330;7.914;2023-01-09T01:55:29;98733.94;;;7.80;89.92
64644;BME280;51056;50.330;7.914;2023-01-09T01:58:37;98736.75;;;7.64;90.15
64644;BME280;51056;50.330;7.914;2023-01-09T02:01:47;98738.72;;;7.74;89.35
64644;BME280;51056;50.330;7.914;2023-01-09T02:04:52;98738.22;;;7.68;89.61
64644;BME280;51056;50.330;7.914;2023-01-09T02:12:57;98732.19;;;7.55;89.56
64644;BME280;51056;50.330;7.914;2023-01-09T02:20:34;98733.34;;;7.38;90.61
64644;BME280;51056;50.330;7.914;2023-01-09T02:31:21;98735.72;;;7.54;89.51
64644;BME280;51056;50.330;7.914;2023-01-09T02:34:40;98734.91;;;7.54;89.82
64644;BME280;51056;50.330;7.914;2023-01-09T02:38:24;98729.72;;;7.54;89.68
64644;BME280;51056;50.330;7.914;2023-01-09T02:41:50;98740.41;;;7.49;90.30
64644;BME280;51056;50.330;7.914;2023-01-09T02:45:14;98749.91;;;7.50;89.92
64644;BME280;51056;50.330;7.914;2023-01-09T02:48:45;98746.97;;;7.42;89.93
64644;BME280;51056;50.330;7.914;2023-01-09T03:02:55;98753.41;;;7.49;90.30
64644;BME280;51056;50.330;7.914;2023-01-09T03:06:22;98763.59;;;7.52;89.80
64644;BME280;51056;50.330;7.914;2023-01-09T03:09:46;98772.56;;;7.48;90.12
64644;BME280;51056;50.330;7.914;2023-01-09T03:13:03;98785.44;;;7.50;90.42
64644;BME280;51056;50.330;7.914;2023-01-09T03:16:32;98794.72;;;7.41;91.11
64644;BME280;51056;50.330;7.914;2023-01-09T03:19:52;98801.47;;;7.43;91.15
64644;BME280;51056;50.330;7.914;2023-01-09T03:23:12;98801.56;;;7.42;91.18
64644;BME280;51056;50.330;7.914;2023-01-09T03:26:34;98802.03;;;7.09;92.93
64644;BME280;51056;50.330;7.914;2023-01-09T03:29:53;98814.16;;;7.35;92.14
64644;BME280;51056;50.330;7.914;2023-01-09T03:33:06;98822.00;;;7.21;92.57
64644;BME280;51056;50.330;7.914;2023-01-09T03:36:16;98827.41;;;7.05;93.19
64644;BME280;51056;50.330;7.914;2023-01-09T03:39:42;98833.25;;;7.21;93.12
64644;BME280;51056;50.330;7.914;2023-01-09T03:43:15;98835.84;;;7.09;90.93
64644;BME280;51056;50.330;7.914;2023-01-09T03:46:29;98847.38;;;7.17;90.34
64644;BME280;51056;50.330;7.914;2023-01-09T03:49:39;98846.47;;;7.18;90.30
64644;BME280;51056;50.330;7.914;2023-01-09T03:52:47;98843.47;;;7.25;90.47
64644;BME280;51056;50.330;7.914;2023-01-09T03:56:09;98839.59;;;7.30;90.65
64644;BME280;51056;50.330;7.914;2023-01-09T03:59:25;98839.38;;;7.20;91.63
64644;BME280;51056;50.330;7.914;2023-01-09T04:02:34;98846.19;;;7.36;90.55
64644;BME280;51056;50.330;7.914;2023-01-09T04:05:51;98856.59;;;7.36;90.29
64644;BME280;51056;50.330;7.914;2023-01-09T04:09:00;98850.00;;;7.30;88.65
64644;BME280;51056;50.330;7.914;2023-01-09T04:12:11;98845.03;;;7.40;88.58
64644;BME280;51056;50.330;7.914;2023-01-09T04:15:30;98854.50;;;7.28;89.93
64644;BME280;51056;50.330;7.914;2023-01-09T04:18:51;98869.50;;;7.37;90.57
64644;BME280;51056;50.330;7.914;2023-01-09T04:22:21;98875.94;;;7.44;90.59
64644;BME280;51056;50.330;7.914;2023-01-09T04:25:31;98877.59;;;7.45;90.43
64644;BME280;51056;50.330;7.914;2023-01-09T04:28:44;98885.38;;;7.33;90.56
64644;BME280;51056;50.330;7.914;2023-01-09T04:32:17;98868.13;;;7.32;90.71
64644;BME280;51056;50.330;7.914;2023-01-09T04:35:49;98874.47;;;7.28;90.84
64644;BME280;51056;50.330;7.914;2023-01-09T04:39:16;98884.41;;;7.21;90.83
64644;BME280;51056;50.330;7.914;2023-01-09T04:42:41;98884.81;;;7.15;90.55
64644;BME280;51056;50.330;7.914;2023-01-09T04:45:56;98894.41;;;7.00;90.74
64644;BME280;51056;50.330;7.914;2023-01-09T04:49:21;98907.41;;;7.00;90.09
64644;BME280;51056;50.330;7.914;2023-01-09T04:52:31;98911.09;;;6.83;90.61
64644;BME280;51056;50.330;7.914;2023-01-09T04:55:40;98911.34;;;6.93;90.75
64644;BME280;51056;50.330;7.914;2023-01-09T04:58:57;98905.47;;;6.48;92.61
64644;BME280;51056;50.330;7.914;2023-01-09T05:02:09;98909.69;;;6.63;91.91
64644;BME280;51056;50.330;7.914;2023-01-09T05:05:31;98910.56;;;6.49;92.50
64644;BME280;51056;50.330;7.914;2023-01-09T05:08:52;98914.91;;;6.63;91.32
64644;BME280;51056;50.330;7.914;2023-01-09T05:12:03;98924.19;;;6.67;90.14
64644;BME280;51056;50.330;7.914;2023-01-09T05:15:12;98932.63;;;6.71;89.92
64644;BME280;51056;50.330;7.914;2023-01-09T05:18:48;98943.53;;;6.76;89.04
64644;BME280;51056;50.330;7.914;2023-01-09T05:22:03;98947.94;;;6.61;89.09
64644;BME280;51056;50.330;7.914;2023-01-09T05:25:29;98964.50;;;6.73;88.53
64644;BME280;51056;50.330;7.914;2023-01-09T05:28:36;98963.03;;;6.69;88.19
64644;BME280;51056;50.330;7.914;2023-01-09T05:31:46;98966.19;;;6.60;88.81
64644;BME280;51056;50.330;7.914;2023-01-09T05:34:50;98979.63;;;6.66;88.77
64644;BME280;51056;50.330;7.914;2023-01-09T05:38:00;98988.38;;;6.80;88.38
64644;BME280;51056;50.330;7.914;2023-01-09T05:41:12;98996.53;;;6.59;88.87
64644;BME280;51056;50.330;7.914;2023-01-09T05:44:19;98996.91;;;6.53;89.62
64644;BME280;51056;50.330;7.914;2023-01-09T05:47:24;98997.00;;;6.51;89.91
64644;BME280;51056;50.330;7.914;2023-01-09T05:54:31;99008.22;;;6.66;89.34
64644;BME280;51056;50.330;7.914;2023-01-09T05:57:43;99006.34;;;6.40;88.36
64644;BME280;51056;50.330;7.914;2023-01-09T06:00:48;98999.38;;;6.40;83.35
64644;BME280;51056;50.330;7.914;2023-01-09T06:03:55;99002.00;;;6.55;83.23
64644;BME280;51056;50.330;7.914;2023-01-09T06:06:58;98999.22;;;6.58;82.60
64644;BME280;51056;50.330;7.914;2023-01-09T06:10:06;98994.50;;;6.64;82.26
64644;BME280;51056;50.330;7.914;2023-01-09T06:13:14;98997.72;;;6.82;81.88
64644;BME280;51056;50.330;7.914;2023-01-09T06:16:22;98997.81;;;6.66;81.12
64644;BME280;51056;50.330;7.914;2023-01-09T06:19:29;98994.50;;;6.93;83.10
64644;BME280;51056;50.330;7.914;2023-01-09T06:22:34;98986.63;;;6.80;83.19
64644;BME280;51056;50.330;7.914;2023-01-09T06:25:43;98997.81;;;6.95;83.28
64644;BME280;51056;50.330;7.914;2023-01-09T06:28:49;98999.13;;;7.02;82.65
64644;BME280;51056;50.330;7.914;2023-01-09T06:31:58;99002.44;;;7.04;81.89
64644;BME280;51056;50.330;7.914;2023-01-09T06:35:02;99008.84;;;7.13;82.96
64644;BME280;51056;50.330;7.914;2023-01-09T06:38:10;99001.03;;;7.13;83.59
64644;BME280;51056;50.330;7.914;2023-01-09T06:41:16;99012.19;;;7.01;84.40
64644;BME280;51056;50.330;7.914;2023-01-09T06:44:25;99009.66;;;7.13;84.02
64644;BME280;51056;50.330;7.914;2023-01-09T06:47:30;99011.94;;;7.05;84.57
64644;BME280;51056;50.330;7.914;2023-01-09T06:50:38;99024.50;;;7.11;83.88
64644;BME280;51056;50.330;7.914;2023-01-09T06:53:42;99026.97;;;7.00;81.01
64644;BME280;51056;50.330;7.914;2023-01-09T06:56:46;99018.78;;;7.06;80.55
64644;BME280;51056;50.330;7.914;2023-01-09T06:59:50;99015.72;;;6.99;83.49
64644;BME280;51056;50.330;7.914;2023-01-09T07:02:56;99020.63;;;7.18;84.94
64644;BME280;51056;50.330;7.914;2023-01-09T07:06:13;99026.72;;;7.17;81.96
64644;BME280;51056;50.330;7.914;2023-01-09T07:09:26;99026.88;;;6.87;83.24
64644;BME280;51056;50.330;7.914;2023-01-09T07:12:38;99038.44;;;7.10;85.15
64644;BME280;51056;50.330;7.914;2023-01-09T07:15:50;99044.03;;;6.75;83.77
64644;BME280;51056;50.330;7.914;2023-01-09T07:19:08;99037.53;;;6.97;81.64
64644;BME280;51056;50.330;7.914;2023-01-09T07:22:32;99041.53;;;7.03;82.32
64644;BME280;51056;50.330;7.914;2023-01-09T07:25:45;99045.81;;;6.89;81.53
64644;BME280;51056;50.330;7.914;2023-01-09T07:29:02;99042.91;;;7.22;80.30
64644;BME280;51056;50.330;7.914;2023-01-09T07:32:12;99052.91;;;7.14;79.17
64644;BME280;51056;50.330;7.914;2023-01-09T07:35:27;99060.34;;;7.20;79.76
64644;BME280;51056;50.330;7.914;2023-01-09T07:38:55;99064.63;;;7.07;80.62
64644;BME280;51056;50.330;7.914;2023-01-09T07:42:12;99065.34;;;7.23;81.47
64644;BME280;51056;50.330;7.914;2023-01-09T07:45:22;99069.44;;;7.28;79.83
64644;BME280;51056;50.330;7.914;2023-01-09T07:48:36;99070.75;;;7.06;80.97
64644;BME280;51056;50.330;7.914;2023-01-09T07:51:54;99071.50;;;7.22;79.92
64644;BME280;51056;50.330;7.914;2023-01-09T07:55:00;99073.97;;;7.24;79.07
64644;BME280;51056;50.330;7.914;2023-01-09T07:58:06;99073.06;;;7.25;78.10
64644;BME280;51056;50.330;7.914;2023-01-09T08:01:14;99082.72;;;7.23;79.51
64644;BME280;51056;50.330;7.914;2023-01-09T08:04:24;99075.09;;;7.20;79.63
64644;BME280;51056;50.330;7.914;2023-01-09T08:07:38;99068.13;;;7.20;79.98
64644;BME280;51056;50.330;7.914;2023-01-09T08:10:51;99076.22;;;7.16;79.75
64644;BME280;51056;50.330;7.914;2023-01-09T08:14:04;99074.66;;;7.28;80.00
64644;BME280;51056;50.330;7.914;2023-01-09T08:17:27;99071.47;;;7.37;80.58
64644;BME280;51056;50.330;7.914;2023-01-09T08:20:44;99068.47;;;7.43;81.45
64644;BME280;51056;50.330;7.914;2023-01-09T08:24:14;99077.78;;;7.33;82.10
64644;BME280;51056;50.330;7.914;2023-01-09T08:27:20;99073.44;;;7.19;83.40
64644;BME280;51056;50.330;7.914;2023-01-09T08:30:45;99082.47;;;6.99;82.48
64644;BME280;51056;50.330;7.914;2023-01-09T08:34:23;99079.28;;;6.94;81.18
64644;BME280;51056;50.330;7.914;2023-01-09T08:37:55;99081.13;;;7.20;78.87
64644;BME280;51056;50.330;7.914;2023-01-09T08:41:21;99095.06;;;7.19;79.98
64644;BME280;51056;50.330;7.914;2023-01-09T08:44:54;99101.56;;;7.27;79.56
64644;BME280;51056;50.330;7.914;2023-01-09T08:48:38;99096.72;;;7.20;79.75
64644;BME280;51056;50.330;7.914;2023-01-09T08:51:55;99085.31;;;7.23;80.38
64644;BME280;51056;50.330;7.914;2023-01-09T08:55:04;99096.56;;;7.23;80.71
64644;BME280;51056;50.330;7.914;2023-01-09T08:58:27;99077.91;;;7.17;80.56
64644;BME280;51056;50.330;7.914;2023-01-09T09:02:01;99088.94;;;7.20;81.45
64644;BME280;51056;50.330;7.914;2023-01-09T09:05:05;99099.53;;;7.32;81.14
64644;BME280;51056;50.330;7.914;2023-01-09T09:08:15;99095.03;;;7.34;80.99
64644;BME280;51056;50.330;7.914;2023-01-09T09:11:19;99099.53;;;7.17;81.68
64644;BME280;51056;50.330;7.914;2023-01-09T09:14:30;99098.03;;;7.42;80.65
64644;BME280;51056;50.330;7.914;2023-01-09T09:18:00;99093.31;;;7.34;81.04
64644;BME280;51056;50.330;7.914;2023-01-09T09:21:08;99094.22;;;7.48;80.25
64644;BME280;51056;50.330;7.914;2023-01-09T09:24:19;99096.50;;;7.52;79.60
64644;BME280;51056;50.330;7.914;2023-01-09T09:27:36;99104.31;;;7.66;79.05
64644;BME280;51056;50.330;7.914;2023-01-09T09:30:44;99098.19;;;7.95;79.20
64644;BME280;51056;50.330;7.914;2023-01-09T09:33:55;99104.31;;;7.93;78.42
64644;BME280;51056;50.330;7.914;2023-01-09T09:37:20;99117.75;;;8.00;77.72
64644;BME280;51056;50.330;7.914;2023-01-09T09:41:16;99110.53;;;8.18;77.72
64644;BME280;51056;50.330;7.914;2023-01-09T09:48:37;99126.47;;;7.86;78.12
64644;BME280;51056;50.330;7.914;2023-01-09T09:55:36;99134.16;;;7.88;77.10
64644;BME280;51056;50.330;7.914;2023-01-09T09:59:14;99128.94;;;7.88;77.47
64644;BME280;51056;50.330;7.914;2023-01-09T10:02:27;99130.97;;;7.97;76.88
64644;BME280;51056;50.330;7.914;2023-01-09T10:05:40;99129.47;;;8.07;76.78
64644;BME280;51056;50.330;7.914;2023-01-09T10:12:28;99128.81;;;8.31;75.17
64644;BME280;51056;50.330;7.914;2023-01-09T10:15:46;99124.81;;;8.40;76.20
64644;BME280;51056;50.330;7.914;2023-01-09T10:19:15;99113.44;;;8.13;76.38
64644;BME280;51056;50.330;7.914;2023-01-09T10:39:23;99107.09;;;8.18;74.13
64644;BME280;51056;50.330;7.914;2023-01-09T10:42:39;99116.78;;;8.15;73.76
64644;BME280;51056;50.330;7.914;2023-01-09T10:45:52;99109.34;;;8.09;73.62
64644;BME280;51056;50.330;7.914;2023-01-09T10:49:00;99112.66;;;7.99;73.70
64644;BME280;51056;50.330;7.914;2023-01-09T10:52:11;99107.38;;;8.13;73.40
64644;BME280;51056;50.330;7.914;2023-01-09T10:55:35;99109.75;;;8.30;72.53
64644;BME280;51056;50.330;7.914;2023-01-09T10:58:47;99131.16;;;8.48;72.41
64644;BME280;51056;50.330;7.914;2023-01-09T11:02:04;99134.56;;;8.36;71.53
64644;BME280;51056;50.330;7.914;2023-01-09T11:05:31;99124.44;;;8.31;71.38
64644;BME280;51056;50.330;7.914;2023-01-09T11:08:49;99127.66;;;8.35;72.04
64644;BME280;51056;50.330;7.914;2023-01-09T11:12:26;99132.13;;;8.20;72.37
64644;BME280;51056;50.330;7.914;2023-01-09T11:15:30;99143.25;;;8.22;72.00
64644;BME280;51056;50.330;7.914;2023-01-09T11:18:52;99150.38;;;8.33;71.23
64644;BME280;51056;50.330;7.914;2023-01-09T11:22:17;99153.41;;;8.12;71.45
64644;BME280;51056;50.330;7.914;2023-01-09T11:25:31;99159.91;;;8.20;72.07
64644;BME280;51056;50.330;7.914;2023-01-09T11:28:44;99153.88;;;8.19;71.64
64644;BME280;51056;50.330;7.914;2023-01-09T11:32:15;99143.13;;;8.38;71.37
64644;BME280;51056;50.330;7.914;2023-01-09T11:35:27;99166.22;;;8.30;70.82
64644;BME280;51056;50.330;7.914;2023-01-09T11:38:53;99156.69;;;8.43;71.17
64644;BME280;51056;50.330;7.914;2023-01-09T11:41:59;99157.59;;;8.42;71.90
64644;BME280;51056;50.330;7.914;2023-01-09T11:45:04;99159.50;;;8.40;71.44
64644;BME280;51056;50.330;7.914;2023-01-09T11:48:26;99175.25;;;8.24;72.26
64644;BME280;51056;50.330;7.914;2023-01-09T11:51:38;99171.63;;;8.27;72.72
64644;BME280;51056;50.330;7.914;2023-01-09T11:54:57;99166.84;;;8.33;73.34
64644;BME280;51056;50.330;7.914;2023-01-09T11:58:18;99164.63;;;8.54;72.31
64644;BME280;51056;50.330;7.914;2023-01-09T12:09:00;99168.69;;;8.31;75.66
64644;BME280;51056;50.330;7.914;2023-01-09T12:12:24;99161.00;;;8.30;75.77
64644;BME280;51056;50.330;7.914;2023-01-09T12:30:42;99171.19;;;8.06;78.30
64644;BME280;51056;50.330;7.914;2023-01-09T12:44:49;99161.22;;;7.85;77.24
64644;BME280;51056;50.330;7.914;2023-01-09T12:52:12;99168.59;;;8.06;77.49
64644;BME280;51056;50.330;7.914;2023-01-09T12:55:26;99176.13;;;8.10;77.12
64644;BME280;51056;50.330;7.914;2023-01-09T12:58:59;99176.81;;;8.27;76.57
64644;BME280;51056;50.330;7.914;2023-01-09T13:03:00;99175.00;;;8.42;76.66
64644;BME280;51056;50.330;7.914;2023-01-09T13:05:57;99168.69;;;8.31;76.61
64644;BME280;51056;50.330;7.914;2023-01-09T13:09:17;99182.81;;;8.14;76.27
64644;BME280;51056;50.330;7.914;2023-01-09T13:12:24;99183.66;;;8.42;75.31
64644;BME280;51056;50.330;7.914;2023-01-09T13:15:31;99185.94;;;8.20;75.92
64644;BME280;51056;50.330;7.914;2023-01-09T13:18:50;99178.91;;;8.34;76.76
64644;BME280;51056;50.330;7.914;2023-01-09T13:21:58;99192.75;;;8.49;77.22
64644;BME280;51056;50.330;7.914;2023-01-09T13:28:30;99195.25;;;8.24;75.84
64644;BME280;51056;50.330;7.914;2023-01-09T13:34:56;99203.19;;;8.08;76.46
64644;BME280;51056;50.330;7.914;2023-01-09T13:38:16;99204.22;;;7.91;75.97
64644;BME280;51056;50.330;7.914;2023-01-09T13:41:49;99207.13;;;7.86;76.14
64644;BME280;51056;50.330;7.914;2023-01-09T13:45:34;99214.47;;;7.80;76.59
64644;BME280;51056;50.330;7.914;2023-01-09T13:48:43;99216.16;;;7.81;76.14
64644;BME280;51056;50.330;7.914;2023-01-09T13:55:00;99213.19;;;7.73;76.44
64644;BME280;51056;50.330;7.914;2023-01-09T14:04:36;99226.56;;;7.66;77.87
64644;BME280;51056;50.330;7.914;2023-01-09T14:07:46;99231.03;;;7.64;78.04
64644;BME280;51056;50.330;7.914;2023-01-09T14:10:57;99229.72;;;7.72;79.61
64644;BME280;51056;50.330;7.914;2023-01-09T14:14:21;99239.03;;;7.76;78.95
64644;BME280;51056;50.330;7.914;2023-01-09T14:20:41;99244.50;;;7.71;79.48
64644;BME280;51056;50.330;7.914;2023-01-09T14:23:57;99235.47;;;7.48;78.82
64644;BME280;51056;50.330;7.914;2023-01-09T14:34:25;99244.03;;;7.50;79.31
64644;BME280;51056;50.330;7.914;2023-01-09T14:37:32;99243.28;;;7.62;77.68
64644;BME280;51056;50.330;7.914;2023-01-09T14:40:44;99252.03;;;7.61;77.82
64644;BME280;51056;50.330;7.914;2023-01-09T14:43:57;99262.81;;;7.69;77.05
64644;BME280;51056;50.330;7.914;2023-01-09T14:47:15;99263.19;;;7.63;76.60
64644;BME280;51056;50.330;7.914;2023-01-09T14:53:37;99268.66;;;8.02;75.62
64644;BME280;51056;50.330;7.914;2023-01-09T14:56:45;99273.50;;;7.79;75.35
64644;BME280;51056;50.330;7.914;2023-01-09T15:03:08;99313.16;;;7.54;76.86
64644;BME280;51056;50.330;7.914;2023-01-09T15:06:17;99320.75;;;7.43;78.64
64644;BME280;51056;50.330;7.914;2023-01-09T15:09:29;99324.81;;;7.33;80.76
64644;BME280;51056;50.330;7.914;2023-01-09T15:12:37;99322.03;;;7.36;80.16
64644;BME280;51056;50.330;7.914;2023-01-09T15:15:46;99338.69;;;7.48;80.36
64644;BME280;51056;50.330;7.914;2023-01-09T15:18:56;99346.38;;;7.35;81.05
64644;BME280;51056;50.330;7.914;2023-01-09T15:22:04;99364.22;;;7.41;83.82
64644;BME280;51056;50.330;7.914;2023-01-09T15:25:31;99375.31;;;7.29;84.06
64644;BME280;51056;50.330;7.914;2023-01-09T15:28:40;99385.63;;;7.30;85.91
64644;BME280;51056;50.330;7.914;2023-01-09T15:31:48;99394.06;;;7.04;87.40
64644;BME280;51056;50.330;7.914;2023-01-09T15:34:54;99409.31;;;6.94;82.91
64644;BME280;51056;50.330;7.914;2023-01-09T15:37:59;99403.78;;;6.68;83.49
64644;BME280;51056;50.330;7.914;2023-01-09T15:41:07;99420.97;;;6.55;82.65
64644;BME280;51056;50.330;7.914;2023-01-09T15:44:19;99410.75;;;6.68;82.35
64644;BME280;51056;50.330;7.914;2023-01-09T15:47:24;99415.94;;;6.52;82.09
64644;BME280;51056;50.330;7.914;2023-01-09T15:50:31;99423.63;;;6.53;82.96
64644;BME280;51056;50.330;7.914;2023-01-09T15:53:36;99432.28;;;6.54;83.31
64644;BME280;51056;50.330;7.914;2023-01-09T15:56:44;99442.41;;;6.59;84.17
64644;BME280;51056;50.330;7.914;2023-01-09T15:59:55;99448.88;;;6.67;85.34
64644;BME280;51056;50.330;7.914;2023-01-09T16:03:01;99449.06;;;6.47;84.21
64644;BME280;51056;50.330;7.914;2023-01-09T16:06:22;99459.59;;;6.61;85.81
64644;BME280;51056;50.330;7.914;2023-01-09T16:09:29;99465.03;;;6.72;84.90
64644;BME280;51056;50.330;7.914;2023-01-09T16:12:33;99472.00;;;6.72;85.03
64644;BME280;51056;50.330;7.914;2023-01-09T16:15:42;99473.44;;;6.78;83.62
64644;BME280;51056;50.330;7.914;2023-01-09T16:18:53;99487.19;;;6.80;84.82
64644;BME280;51056;50.330;7.914;2023-01-09T16:22:00;99504.72;;;6.92;84.57
64644;BME280;51056;50.330;7.914;2023-01-09T16:25:26;99505.06;;;7.02;85.27
64644;BME280;51056;50.330;7.914;2023-01-09T16:28:31;99514.38;;;6.90;83.36
64644;BME280;51056;50.330;7.914;2023-01-09T16:31:35;99526.59;;;6.88;83.68
64644;BME280;51056;50.330;7.914;2023-01-09T16:34:42;99525.94;;;7.00;83.10
64644;BME280;51056;50.330;7.914;2023-01-09T16:37:47;99532.16;;;7.13;81.44
64644;BME280;51056;50.330;7.914;2023-01-09T16:44:22;99544.91;;;7.02;82.88
64644;BME280;51056;50.330;7.914;2023-01-09T16:47:26;99553.53;;;7.03;81.53
64644;BME280;51056;50.330;7.914;2023-01-09T16:50:30;99562.00;;;7.06;78.91
64644;BME280;51056;50.330;7.914;2023-01-09T16:53:33;99570.44;;;6.94;80.87
64644;BME280;51056;50.330;7.914;2023-01-09T16:56:38;99570.72;;;7.05;79.59
64644;BME280;51056;50.330;7.914;2023-01-09T16:59:43;99574.72;;;6.95;80.56
64644;BME280;51056;50.330;7.914;2023-01-09T17:02:48;99581.63;;;6.96;78.16
64644;BME280;51056;50.330;7.914;2023-01-09T17:05:54;99586.09;;;6.77;77.41
64644;BME280;51056;50.330;7.914;2023-01-09T17:08:59;99588.34;;;6.83;78.06
64644;BME280;51056;50.330;7.914;2023-01-09T17:12:04;99587.72;;;6.95;80.06
64644;BME280;51056;50.330;7.914;2023-01-09T17:15:09;99602.72;;;6.90;78.95
64644;BME280;51056;50.330;7.914;2023-01-09T17:18:15;99614.50;;;6.62;77.73
64644;BME280;51056;50.330;7.914;2023-01-09T17:21:22;99608.41;;;6.46;79.12
64644;BME280;51056;50.330;7.914;2023-01-09T17:24:28;99610.47;;;6.57;79.12
64644;BME280;51056;50.330;7.914;2023-01-09T17:27:50;99617.13;;;6.45;79.32
64644;BME280;51056;50.330;7.914;2023-01-09T17:31:12;99626.13;;;6.38;78.00
64644;BME280;51056;50.330;7.914;2023-01-09T17:34:24;99635.75;;;6.36;79.15
64644;BME280;51056;50.330;7.914;2023-01-09T17:37:33;99639.25;;;6.35;80.35
64644;BME280;51056;50.330;7.914;2023-01-09T17:40:39;99642.16;;;6.46;80.77
64644;BME280;51056;50.330;7.914;2023-01-09T17:43:43;99653.44;;;6.27;82.00
64644;BME280;51056;50.330;7.914;2023-01-09T17:46:47;99650.56;;;6.34;82.77
64644;BME280;51056;50.330;7.914;2023-01-09T17:49:51;99674.75;;;6.17;83.49
64644;BME280;51056;50.330;7.914;2023-01-09T17:52:55;99678.69;;;6.07;83.53
64644;BME280;51056;50.330;7.914;2023-01-09T17:56:00;99671.22;;;6.18;85.33
64644;BME280;51056;50.330;7.914;2023-01-09T17:59:04;99673.03;;;6.16;83.59
64644;BME280;51056;50.330;7.914;2023-01-09T18:02:17;99695.09;;;6.07;84.46
64644;BME280;51056;50.330;7.914;2023-01-09T18:05:23;99696.34;;;6.17;82.83
64644;BME280;51056;50.330;7.914;2023-01-09T18:08:34;99692.63;;;6.23;81.90
64644;BME280;51056;50.330;7.914;2023-01-09T18:11:43;99697.28;;;6.16;82.26
64644;BME280;51056;50.330;7.914;2023-01-09T18:14:49;99680.19;;;6.47;82.98
64644;BME280;51056;50.330;7.914;2023-01-09T18:18:00;99692.59;;;6.59;84.13
64644;BME280;51056;50.330;7.914;2023-01-09T18:21:05;99711.09;;;6.70;84.04
64644;BME280;51056;50.330;7.914;2023-01-09T18:24:09;99721.94;;;6.61;84.46
64644;BME280;51056;50.330;7.914;2023-01-09T18:27:14;99726.88;;;6.48;84.24
64644;BME280;51056;50.330;7.914;2023-01-09T18:30:17;99730.47;;;6.63;83.90
64644;BME280;51056;50.330;7.914;2023-01-09T18:33:24;99733.94;;;6.64;83.45
64644;BME280;51056;50.330;7.914;2023-01-09T18:36:28;99743.13;;;6.71;82.99
64644;BME280;51056;50.330;7.914;2023-01-09T18:39:33;99746.69;;;6.86;82.42
64644;BME280;51056;50.330;7.914;2023-01-09T18:42:37;99745.16;;;6.64;83.55
64644;BME280;51056;50.330;7.914;2023-01-09T18:45:43;99748.59;;;6.65;82.29
64644;BME280;51056;50.330;7.914;2023-01-09T18:48:56;99754.38;;;6.52;81.18
64644;BME280;51056;50.330;7.914;2023-01-09T18:52:01;99763.94;;;6.52;81.40
64644;BME280;51056;50.330;7.914;2023-01-09T18:55:09;99759.53;;;6.71;81.05
64644;BME280;51056;50.330;7.914;2023-01-09T18:58:13;99765.28;;;6.78;82.29
64644;BME280;51056;50.330;7.914;2023-01-09T19:01:17;99771.69;;;6.88;82.58
64644;BME280;51056;50.330;7.914;2023-01-09T19:04:21;99782.13;;;6.69;83.41
64644;BME280;51056;50.330;7.914;2023-01-09T19:07:25;99782.28;;;6.66;81.02
64644;BME280;51056;50.330;7.914;2023-01-09T19:10:29;99793.06;;;6.40;80.24
64644;BME280;51056;50.330;7.914;2023-01-09T19:13:34;99795.81;;;6.37;81.13
64644;BME280;51056;50.330;7.914;2023-01-09T19:16:38;99805.00;;;6.44;79.33
64644;BME280;51056;50.330;7.914;2023-01-09T19:19:42;99818.41;;;6.35;80.00
64644;BME280;51056;50.330;7.914;2023-01-09T19:22:49;99817.28;;;6.21;79.65
64644;BME280;51056;50.330;7.914;2023-01-09T19:25:55;99817.00;;;6.27;80.09